createdAt,value
2024-04-22T00:01:20.607Z,78.00
2024-04-22T00:03:20.474Z,78.00
2024-04-22T00:05:20.486Z,78.00
2024-04-22T00:07:20.478Z,78.00
2024-04-22T00:09:20.549Z,78.00
2024-04-22T00:11:20.492Z,78.00
2024-04-22T00:13:23.665Z,78.00
2024-04-22T00:15:26.220Z,78.00
2024-04-22T00:17:20.583Z,78.00
2024-04-22T00:19:20.642Z,78.00
2024-04-22T00:21:20.546Z,78.00
2024-04-22T00:23:20.485Z,78.00
2024-04-22T00:25:20.561Z,78.00
2024-04-22T00:27:20.564Z,78.00
2024-04-22T00:29:20.524Z,78.00
2024-04-22T00:31:20.579Z,78.00
2024-04-22T00:33:20.568Z,78.00
2024-04-22T00:35:25.672Z,77.00
2024-04-22T00:37:20.571Z,77.00
2024-04-22T00:39:20.518Z,78.00
2024-04-22T00:41:20.520Z,78.00
2024-04-22T00:43:20.559Z,78.00
2024-04-22T00:45:20.491Z,78.00
2024-04-22T00:47:23.146Z,77.00
2024-04-22T00:49:20.627Z,77.00
2024-04-22T00:51:20.606Z,77.00
2024-04-22T00:53:20.837Z,77.00
2024-04-22T00:55:23.428Z,77.00
2024-04-22T00:57:23.555Z,77.00
2024-04-22T00:59:20.747Z,77.00
2024-04-22T01:01:20.599Z,77.00
2024-04-22T01:03:20.610Z,77.00
2024-04-22T01:05:20.504Z,77.00
2024-04-22T01:07:20.611Z,77.00
2024-04-22T01:09:20.530Z,77.00
2024-04-22T01:11:20.524Z,77.00
2024-04-22T01:13:20.685Z,77.00
2024-04-22T01:15:20.781Z,77.00
2024-04-22T01:17:20.624Z,77.00
2024-04-22T01:19:21.075Z,77.00
2024-04-22T01:21:22.553Z,77.00
2024-04-22T01:23:20.726Z,77.00
2024-04-22T01:25:20.551Z,77.00
2024-04-22T01:27:20.596Z,77.00
2024-04-22T01:29:20.567Z,77.00
2024-04-22T01:31:20.537Z,77.00
2024-04-22T01:33:20.673Z,77.00
2024-04-22T01:35:22.647Z,77.00
2024-04-22T01:39:20.755Z,77.00
2024-04-22T01:43:20.532Z,77.00
2024-04-22T01:47:44.871Z,76.00
2024-04-22T01:49:44.833Z,76.00
2024-04-22T01:51:45.251Z,76.00
2024-04-22T01:53:46.452Z,76.00
2024-04-22T01:55:44.902Z,76.00
2024-04-22T01:57:44.809Z,76.00
2024-04-22T01:59:44.914Z,76.00
2024-04-22T02:01:44.940Z,76.00
2024-04-22T02:03:44.853Z,77.00
2024-04-22T02:05:44.836Z,77.00
2024-04-22T02:07:44.920Z,77.00
2024-04-22T02:09:44.858Z,77.00
2024-04-22T02:11:44.845Z,77.00
2024-04-22T02:13:44.967Z,77.00
2024-04-22T02:15:44.804Z,77.00
2024-04-22T02:17:44.875Z,77.00
2024-04-22T02:19:44.896Z,77.00
2024-04-22T02:21:44.896Z,77.00
2024-04-22T02:23:44.900Z,77.00
2024-04-22T02:25:45.071Z,77.00
2024-04-22T02:27:44.818Z,77.00
2024-04-22T02:29:48.262Z,77.00
2024-04-22T02:31:44.938Z,77.00
2024-04-22T02:33:44.904Z,77.00
2024-04-22T02:35:49.724Z,77.00
2024-04-22T02:37:44.947Z,76.00
2024-04-22T02:39:45.056Z,76.00
2024-04-22T02:41:44.874Z,76.00
2024-04-22T02:43:44.946Z,76.00
2024-04-22T02:45:44.831Z,76.00
2024-04-22T02:47:45.263Z,76.00
2024-04-22T02:49:44.859Z,76.00
2024-04-22T02:51:44.932Z,76.00
2024-04-22T02:53:44.930Z,76.00
2024-04-22T02:55:45.090Z,76.00
2024-04-22T02:57:44.828Z,75.00
2024-04-22T02:59:44.846Z,75.00
2024-04-22T03:01:44.908Z,75.00
2024-04-22T03:03:44.813Z,75.00
2024-04-22T03:05:44.875Z,75.00
2024-04-22T03:07:44.842Z,75.00
2024-04-22T03:09:44.940Z,75.00
2024-04-22T03:11:44.891Z,75.00
2024-04-22T03:13:46.483Z,75.00
2024-04-22T03:15:44.986Z,75.00
2024-04-22T03:17:44.963Z,75.00
2024-04-22T03:19:44.914Z,74.00
2024-04-22T03:21:44.882Z,74.00
2024-04-22T03:23:44.847Z,74.00
2024-04-22T03:25:44.888Z,74.00
2024-04-22T03:27:44.873Z,74.00
2024-04-22T03:29:44.860Z,74.00
2024-04-22T03:31:47.936Z,74.00
2024-04-22T03:33:44.919Z,74.00
2024-04-22T03:35:44.868Z,74.00
2024-04-22T03:37:44.855Z,74.00
2024-04-22T03:39:44.872Z,74.00
2024-04-22T03:41:44.842Z,74.00
2024-04-22T03:43:44.894Z,74.00
2024-04-22T03:45:44.852Z,75.00
2024-04-22T03:47:45.014Z,75.00
2024-04-22T03:49:44.883Z,75.00
2024-04-22T03:51:44.929Z,75.00
2024-04-22T03:53:44.917Z,75.00
2024-04-22T03:55:44.921Z,75.00
2024-04-22T03:57:45.630Z,75.00
2024-04-22T03:59:44.904Z,75.00
2024-04-22T04:01:44.967Z,76.00
2024-04-22T04:03:45.338Z,76.00
2024-04-22T04:05:48.285Z,76.00
2024-04-22T04:07:44.971Z,76.00
2024-04-22T04:09:44.847Z,76.00
2024-04-22T04:11:47.097Z,76.00
2024-04-22T04:13:44.981Z,76.00
2024-04-22T04:15:44.879Z,77.00
2024-04-22T04:17:45.953Z,77.00
2024-04-22T04:19:44.959Z,77.00
2024-04-22T04:21:44.841Z,77.00
2024-04-22T04:23:44.961Z,77.00
2024-04-22T04:25:45.048Z,76.00
2024-04-22T04:27:44.880Z,76.00
2024-04-22T04:29:44.908Z,76.00
2024-04-22T04:31:45.783Z,76.00
2024-04-22T04:33:44.929Z,76.00
2024-04-22T04:35:49.003Z,76.00
2024-04-22T04:37:45.140Z,76.00
2024-04-22T04:40:44.986Z,77.00
2024-04-22T04:42:45.055Z,77.00
2024-04-22T04:44:44.891Z,77.00
2024-04-22T04:46:45.992Z,77.00
2024-04-22T04:48:45.038Z,77.00
2024-04-22T04:50:45.151Z,77.00
2024-04-22T04:52:45.023Z,77.00
2024-04-22T04:54:44.922Z,77.00
2024-04-22T04:56:46.194Z,77.00
2024-04-22T04:58:44.945Z,77.00
2024-04-22T05:00:45.024Z,77.00
2024-04-22T05:02:45.026Z,77.00
2024-04-22T05:04:44.934Z,77.00
2024-04-22T05:06:45.246Z,77.00
2024-04-22T05:08:48.898Z,77.00
2024-04-22T05:10:45.052Z,77.00
2024-04-22T05:12:45.045Z,77.00
2024-04-22T05:14:45.049Z,77.00
2024-04-22T05:16:44.988Z,77.00
2024-04-22T05:18:44.986Z,77.00
2024-04-22T05:20:45.496Z,77.00
2024-04-22T05:22:44.982Z,77.00
2024-04-22T05:24:44.987Z,77.00
2024-04-22T05:26:44.984Z,77.00
2024-04-22T05:28:45.068Z,77.00
2024-04-22T05:30:44.987Z,76.00
2024-04-22T05:32:44.983Z,76.00
2024-04-22T05:34:48.040Z,76.00
2024-04-22T05:36:44.999Z,76.00
2024-04-22T05:38:45.021Z,76.00
2024-04-22T05:40:45.091Z,76.00
2024-04-22T05:42:51.027Z,76.00
2024-04-22T05:44:45.044Z,76.00
2024-04-22T05:46:46.078Z,76.00
2024-04-22T05:48:44.964Z,76.00
2024-04-22T05:50:44.999Z,76.00
2024-04-22T05:52:44.984Z,76.00
2024-04-22T05:54:44.969Z,75.00
2024-04-22T05:56:44.977Z,75.00
2024-04-22T05:58:45.058Z,75.00
2024-04-22T06:00:45.303Z,75.00
2024-04-22T06:02:46.041Z,75.00
2024-04-22T06:04:45.045Z,75.00
2024-04-22T06:06:44.996Z,75.00
2024-04-22T06:08:45.040Z,75.00
2024-04-22T06:10:44.976Z,75.00
2024-04-22T06:12:44.939Z,75.00
2024-04-22T06:14:45.100Z,74.00
2024-04-22T06:16:45.211Z,74.00
2024-04-22T06:18:45.031Z,74.00
2024-04-22T06:20:45.867Z,74.00
2024-04-22T06:22:45.052Z,74.00
2024-04-22T06:24:45.014Z,74.00
2024-04-22T06:26:44.937Z,74.00
2024-04-22T06:28:45.129Z,74.00
2024-04-22T06:30:44.935Z,74.00
2024-04-22T06:32:45.034Z,74.00
2024-04-22T06:34:45.199Z,74.00
2024-04-22T06:36:46.639Z,74.00
2024-04-22T06:38:45.091Z,74.00
2024-04-22T06:40:45.057Z,74.00
2024-04-22T06:42:49.973Z,73.00
2024-04-22T06:44:44.974Z,73.00
2024-04-22T06:46:45.142Z,73.00
2024-04-22T06:48:45.065Z,73.00
2024-04-22T06:50:45.600Z,73.00
2024-04-22T06:52:45.061Z,73.00
2024-04-22T06:54:45.098Z,73.00
2024-04-22T06:56:46.339Z,73.00
2024-04-22T06:58:45.352Z,73.00
2024-04-22T07:00:45.005Z,73.00
2024-04-22T07:02:45.833Z,73.00
2024-04-22T07:04:45.369Z,73.00
2024-04-22T07:06:44.993Z,72.00
2024-04-22T07:08:45.022Z,72.00
2024-04-22T07:10:45.095Z,72.00
2024-04-22T07:12:45.074Z,72.00
2024-04-22T07:14:45.842Z,72.00
2024-04-22T07:16:45.306Z,72.00
2024-04-22T07:18:44.958Z,72.00
2024-04-22T07:20:45.030Z,72.00
2024-04-22T07:22:45.291Z,72.00
2024-04-22T07:24:54.871Z,71.00
2024-04-22T07:26:45.058Z,70.00
2024-04-22T07:28:45.040Z,70.00
2024-04-22T07:30:45.070Z,70.00
2024-04-22T07:32:45.117Z,70.00
2024-04-22T07:34:45.067Z,70.00
2024-04-22T07:36:44.954Z,70.00
2024-04-22T07:38:45.046Z,70.00
2024-04-22T07:40:45.271Z,70.00
2024-04-22T07:42:45.007Z,70.00
2024-04-22T07:44:49.826Z,70.00
2024-04-22T07:46:45.140Z,70.00
2024-04-22T07:48:47.819Z,70.00
2024-04-22T07:50:49.948Z,69.00
2024-04-22T07:52:45.055Z,69.00
2024-04-22T07:54:45.149Z,69.00
2024-04-22T07:56:47.365Z,69.00
2024-04-22T07:58:46.079Z,69.00
2024-04-22T08:00:45.893Z,68.00
2024-04-22T08:02:45.082Z,68.00
2024-04-22T08:04:45.160Z,69.00
2024-04-22T08:06:45.152Z,69.00
2024-04-22T08:08:45.182Z,69.00
2024-04-22T08:12:45.441Z,68.00
2024-04-22T08:16:58.023Z,67.00
2024-04-22T08:18:59.473Z,67.00
2024-04-22T08:20:57.952Z,66.00
2024-04-22T08:22:57.944Z,66.00
2024-04-22T08:24:58.020Z,65.00
2024-04-22T08:26:58.039Z,65.00
2024-04-22T08:29:00.246Z,65.00
2024-04-22T08:30:58.023Z,66.00
2024-04-22T08:33:03.008Z,65.00
2024-04-22T08:34:57.945Z,65.00
2024-04-22T08:36:58.082Z,65.00
2024-04-22T08:38:58.161Z,64.00
2024-04-22T08:40:57.913Z,64.00
2024-04-22T08:42:58.054Z,63.00
2024-04-22T08:44:58.236Z,64.00
2024-04-22T08:46:58.057Z,64.00
2024-04-22T08:49:00.737Z,64.00
2024-04-22T08:51:01.244Z,65.00
2024-04-22T08:52:58.010Z,64.00
2024-04-22T08:54:58.047Z,64.00
2024-04-22T08:56:57.979Z,65.00
2024-04-22T08:58:58.133Z,64.00
2024-04-22T09:00:58.017Z,62.00
2024-04-22T09:02:58.139Z,62.00
2024-04-22T09:05:58.133Z,62.00
2024-04-22T09:07:58.200Z,61.00
2024-04-22T09:09:00.409Z,61.00
2024-04-22T09:14:03.123Z,62.00
2024-04-22T09:15:58.183Z,62.00
2024-04-22T09:17:58.265Z,63.00
2024-04-22T09:19:58.010Z,63.00
2024-04-22T09:21:58.166Z,62.00
2024-04-22T09:23:58.014Z,62.00
2024-04-22T09:25:58.160Z,61.00
2024-04-22T09:27:58.149Z,61.00
2024-04-22T09:29:57.956Z,61.00
2024-04-22T09:31:58.194Z,61.00
2024-04-22T09:33:58.351Z,61.00
2024-04-22T09:35:58.242Z,61.00
2024-04-22T09:37:59.931Z,61.00
2024-04-22T09:39:58.103Z,61.00
2024-04-22T09:41:58.084Z,61.00
2024-04-22T09:44:02.794Z,61.00
2024-04-22T09:45:58.064Z,61.00
2024-04-22T09:47:58.328Z,61.00
2024-04-22T09:49:58.191Z,61.00
2024-04-22T09:51:58.898Z,60.00
2024-04-22T09:54:01.064Z,59.00
2024-04-22T09:55:58.084Z,59.00
2024-04-22T09:57:58.141Z,59.00
2024-04-22T09:59:58.024Z,57.00
2024-04-22T10:01:58.094Z,57.00
2024-04-22T10:03:59.627Z,57.00
2024-04-22T10:06:01.477Z,57.00
2024-04-22T10:07:58.336Z,57.00
2024-04-22T10:09:58.124Z,58.00
2024-04-22T10:11:58.239Z,56.00
2024-04-22T10:13:58.153Z,56.00
2024-04-22T10:15:58.064Z,56.00
2024-04-22T10:17:58.224Z,57.00
2024-04-22T10:19:58.243Z,58.00
2024-04-22T10:21:58.055Z,57.00
2024-04-22T10:23:58.136Z,57.00
2024-04-22T10:26:03.053Z,57.00
2024-04-22T10:28:00.798Z,57.00
2024-04-22T10:29:58.064Z,56.00
2024-04-22T10:31:58.078Z,57.00
2024-04-22T10:33:58.151Z,57.00
2024-04-22T10:35:58.028Z,55.00
2024-04-22T10:37:58.074Z,55.00
2024-04-22T10:39:59.027Z,55.00
2024-04-22T10:42:00.079Z,55.00
2024-04-22T10:43:58.151Z,55.00
2024-04-22T10:45:58.024Z,55.00
2024-04-22T10:48:08.381Z,55.00
2024-04-22T10:49:58.058Z,55.00
2024-04-22T10:51:58.210Z,55.00
2024-04-22T10:53:58.078Z,56.00
2024-04-22T10:56:02.955Z,55.00
2024-04-22T10:57:58.184Z,55.00
2024-04-22T10:59:58.077Z,55.00
2024-04-22T11:01:58.180Z,55.00
2024-04-22T11:03:58.131Z,54.00
2024-04-22T11:05:58.146Z,54.00
2024-04-22T11:07:58.061Z,54.00
2024-04-22T11:09:58.067Z,54.00
2024-04-22T11:11:58.888Z,54.00
2024-04-22T11:13:58.140Z,54.00
2024-04-22T11:15:58.133Z,54.00
2024-04-22T11:17:58.275Z,54.00
2024-04-22T11:19:58.090Z,54.00
2024-04-22T11:21:58.131Z,54.00
2024-04-22T11:23:58.175Z,53.00
2024-04-22T11:25:58.190Z,52.00
2024-04-22T11:27:58.144Z,53.00
2024-04-22T11:29:58.456Z,53.00
2024-04-22T11:31:58.272Z,53.00
2024-04-22T11:34:01.917Z,53.00
2024-04-22T11:35:58.329Z,50.00
2024-04-22T11:37:58.324Z,49.00
2024-04-22T11:39:58.267Z,49.00
2024-04-22T11:41:59.251Z,49.00
2024-04-22T11:44:06.733Z,50.00
2024-04-22T11:45:58.095Z,50.00
2024-04-22T11:47:59.376Z,52.00
2024-04-22T11:49:58.303Z,52.00
2024-04-22T11:51:58.180Z,52.00
2024-04-22T11:53:58.133Z,53.00
2024-04-22T11:55:58.174Z,52.00
2024-04-22T11:57:58.270Z,52.00
2024-04-22T11:59:58.305Z,52.00
2024-04-22T12:01:58.332Z,51.00
2024-04-22T12:03:58.261Z,52.00
2024-04-22T12:06:03.120Z,53.00
2024-04-22T12:07:58.254Z,53.00
2024-04-22T12:09:58.157Z,53.00
2024-04-22T12:11:58.303Z,53.00
2024-04-22T12:13:58.233Z,53.00
2024-04-22T12:15:58.134Z,53.00
2024-04-22T12:17:58.257Z,53.00
2024-04-22T12:19:58.145Z,52.00
2024-04-22T12:21:58.147Z,52.00
2024-04-22T12:23:58.234Z,52.00
2024-04-22T12:25:58.232Z,52.00
2024-04-22T12:28:05.791Z,53.00
2024-04-22T12:29:58.166Z,53.00
2024-04-22T12:31:59.132Z,54.00
2024-04-22T12:34:06.270Z,53.00
2024-04-22T12:36:01.285Z,53.00
2024-04-22T12:37:58.186Z,53.00
2024-04-22T12:39:58.129Z,53.00
2024-04-22T12:41:58.224Z,52.00
2024-04-22T12:44:00.675Z,52.00
2024-04-22T12:45:58.076Z,52.00
2024-04-22T12:47:58.279Z,52.00
2024-04-22T12:49:58.325Z,53.00
2024-04-22T12:51:59.036Z,53.00
2024-04-22T12:53:58.291Z,53.00
2024-04-22T12:57:01.117Z,53.00
2024-04-22T12:59:02.041Z,53.00
2024-04-22T13:00:58.396Z,53.00
2024-04-22T13:02:58.209Z,52.00
2024-04-22T13:04:58.268Z,52.00
2024-04-22T13:07:02.950Z,52.00
2024-04-22T13:09:00.550Z,52.00
2024-04-22T13:10:58.593Z,53.00
2024-04-22T13:12:58.208Z,53.00
2024-04-22T13:14:58.373Z,54.00
2024-04-22T13:16:58.207Z,54.00
2024-04-22T13:18:59.031Z,54.00
2024-04-22T13:20:58.313Z,54.00
2024-04-22T13:22:58.339Z,55.00
2024-04-22T13:24:58.275Z,55.00
2024-04-22T13:26:58.157Z,55.00
2024-04-22T13:28:58.249Z,55.00
2024-04-22T13:30:58.282Z,55.00
2024-04-22T13:32:58.334Z,55.00
2024-04-22T13:34:59.373Z,55.00
2024-04-22T13:36:58.448Z,55.00
2024-04-22T13:38:58.229Z,55.00
2024-04-22T13:40:58.275Z,55.00
2024-04-22T13:42:58.189Z,55.00
2024-04-22T13:45:01.489Z,55.00
2024-04-22T13:46:58.375Z,55.00
2024-04-22T13:48:58.259Z,55.00
2024-04-22T13:50:58.374Z,55.00
2024-04-22T13:53:06.195Z,55.00
2024-04-22T13:54:58.372Z,55.00
2024-04-22T13:56:58.374Z,55.00
2024-04-22T13:58:58.242Z,55.00
2024-04-22T14:00:58.247Z,55.00
2024-04-22T14:02:58.328Z,57.00
2024-04-22T14:04:58.361Z,57.00
2024-04-22T14:06:58.256Z,57.00
2024-04-22T14:08:58.527Z,56.00
2024-04-22T14:10:58.356Z,55.00
2024-04-22T14:13:04.500Z,55.00
2024-04-22T14:14:58.202Z,55.00
2024-04-22T14:16:58.283Z,55.00
2024-04-22T14:18:58.271Z,55.00
2024-04-22T14:22:58.363Z,55.00
2024-04-22T14:24:58.331Z,55.00
2024-04-22T14:26:59.427Z,55.00
2024-04-22T14:28:58.426Z,55.00
2024-04-22T14:31:12.650Z,55.00
2024-04-22T14:36:25.662Z,54.00
2024-04-22T14:39:16.949Z,55.00
2024-04-22T14:41:16.978Z,55.00
2024-04-22T14:43:16.992Z,55.00
2024-04-22T14:45:17.821Z,55.00
2024-04-22T14:47:16.943Z,55.00
2024-04-22T14:49:17.029Z,54.00
2024-04-22T14:51:16.984Z,55.00
2024-04-22T14:53:19.922Z,54.00
2024-04-22T14:55:17.042Z,54.00
2024-04-22T14:57:16.887Z,55.00
2024-04-22T14:59:17.018Z,55.00
2024-04-22T15:01:17.022Z,55.00
2024-04-22T15:03:17.244Z,55.00
2024-04-22T15:05:19.870Z,55.00
2024-04-22T15:07:18.945Z,55.00
2024-04-22T15:09:18.091Z,55.00
2024-04-22T15:11:17.090Z,55.00
2024-04-22T15:13:17.005Z,55.00
2024-04-22T15:15:16.854Z,55.00
2024-04-22T15:17:20.341Z,55.00
2024-04-22T15:19:17.096Z,55.00
2024-04-22T15:21:17.055Z,55.00
2024-04-22T15:23:16.995Z,55.00
2024-04-22T15:25:17.559Z,55.00
2024-04-22T15:27:16.936Z,55.00
2024-04-22T15:29:17.020Z,55.00
2024-04-22T15:31:17.348Z,54.00
2024-04-22T15:33:18.975Z,54.00
2024-04-22T15:35:17.019Z,54.00
2024-04-22T15:37:19.343Z,54.00
2024-04-22T15:39:16.919Z,54.00
2024-04-22T15:41:17.011Z,53.00
2024-04-22T15:43:17.052Z,53.00
2024-04-22T15:45:17.429Z,53.00
2024-04-22T15:47:18.677Z,53.00
2024-04-22T15:49:17.037Z,54.00
2024-04-22T15:51:16.931Z,54.00
2024-04-22T15:53:17.537Z,54.00
2024-04-22T15:55:16.944Z,55.00
2024-04-22T15:57:21.797Z,55.00
2024-04-22T15:59:16.872Z,55.00
2024-04-22T16:01:17.059Z,55.00
2024-04-22T16:03:17.259Z,55.00
2024-04-22T16:05:16.971Z,55.00
2024-04-22T16:07:17.101Z,55.00
2024-04-22T16:09:19.926Z,56.00
2024-04-22T16:11:20.950Z,56.00
2024-04-22T16:13:17.061Z,56.00
2024-04-22T16:15:16.955Z,56.00
2024-04-22T16:17:17.229Z,56.00
2024-04-22T16:19:25.944Z,56.00
2024-04-22T16:21:17.715Z,56.00
2024-04-22T16:23:16.965Z,56.00
2024-04-22T16:25:16.920Z,56.00
2024-04-22T16:27:16.955Z,56.00
2024-04-22T16:29:17.107Z,56.00
2024-04-22T16:31:17.277Z,56.00
2024-04-22T16:33:16.967Z,56.00
2024-04-22T16:35:16.968Z,56.00
2024-04-22T16:37:17.077Z,56.00
2024-04-22T16:39:18.873Z,56.00
2024-04-22T16:41:17.864Z,57.00
2024-04-22T16:43:17.226Z,57.00
2024-04-22T16:45:17.592Z,56.00
2024-04-22T16:47:16.958Z,57.00
2024-04-22T16:49:16.970Z,57.00
2024-04-22T16:51:17.057Z,57.00
2024-04-22T16:53:17.091Z,57.00
2024-04-22T16:55:16.944Z,57.00
2024-04-22T16:57:16.898Z,57.00
2024-04-22T16:59:21.850Z,57.00
2024-04-22T17:01:17.235Z,57.00
2024-04-22T17:03:16.980Z,58.00
2024-04-22T17:05:22.747Z,57.00
2024-04-22T17:07:17.183Z,57.00
2024-04-22T17:09:17.012Z,58.00
2024-04-22T17:11:19.767Z,57.00
2024-04-22T17:13:19.526Z,58.00
2024-04-22T17:15:16.913Z,58.00
2024-04-22T17:17:17.018Z,58.00
2024-04-22T17:19:19.794Z,58.00
2024-04-22T17:21:17.091Z,58.00
2024-04-22T17:23:17.007Z,58.00
2024-04-22T17:25:16.986Z,58.00
2024-04-22T17:27:17.055Z,58.00
2024-04-22T17:29:18.188Z,58.00
2024-04-22T17:31:16.988Z,59.00
2024-04-22T17:33:19.788Z,58.00
2024-04-22T17:35:18.447Z,58.00
2024-04-22T17:37:17.153Z,58.00
2024-04-22T17:39:16.975Z,58.00
2024-04-22T17:41:16.996Z,58.00
2024-04-22T17:43:17.060Z,58.00
2024-04-22T17:45:17.161Z,58.00
2024-04-22T17:48:17.127Z,58.00
2024-04-22T17:50:19.692Z,58.00
2024-04-22T17:52:17.107Z,58.00
2024-04-22T17:54:17.017Z,59.00
2024-04-22T17:56:17.126Z,58.00
2024-04-22T17:58:17.047Z,58.00
2024-04-22T18:00:19.741Z,59.00
2024-04-22T18:02:17.021Z,59.00
2024-04-22T18:04:17.492Z,59.00
2024-04-22T18:06:17.035Z,59.00
2024-04-22T18:08:18.016Z,59.00
2024-04-22T18:10:17.184Z,60.00
2024-04-22T18:12:17.078Z,60.00
2024-04-22T18:14:17.013Z,59.00
2024-04-22T18:16:22.047Z,60.00
2024-04-22T18:18:17.049Z,60.00
2024-04-22T18:20:19.489Z,60.00
2024-04-22T18:22:21.010Z,60.00
2024-04-22T18:24:17.078Z,60.00
2024-04-22T18:26:17.293Z,61.00
2024-04-22T18:28:19.566Z,61.00
2024-04-22T18:30:17.287Z,61.00
2024-04-22T18:32:17.027Z,61.00
2024-04-22T18:34:20.351Z,61.00
2024-04-22T18:36:18.194Z,61.00
2024-04-22T18:38:17.019Z,62.00
2024-04-22T18:40:19.082Z,62.00
2024-04-22T18:42:17.091Z,62.00
2024-04-22T18:44:16.952Z,62.00
2024-04-22T18:46:17.896Z,62.00
2024-04-22T18:48:17.142Z,63.00
2024-04-22T18:50:17.061Z,63.00
2024-04-22T18:52:20.076Z,64.00
2024-04-22T18:54:17.003Z,64.00
2024-04-22T18:56:17.056Z,64.00
2024-04-22T18:58:17.130Z,64.00
2024-04-22T19:00:17.028Z,64.00
2024-04-22T19:02:17.097Z,64.00
2024-04-22T19:04:18.066Z,64.00
2024-04-22T19:06:17.052Z,64.00
2024-04-22T19:08:17.054Z,64.00
2024-04-22T19:10:26.291Z,64.00
2024-04-22T19:12:17.046Z,64.00
2024-04-22T19:14:16.978Z,64.00
2024-04-22T19:16:17.039Z,64.00
2024-04-22T19:18:17.068Z,64.00
2024-04-22T19:20:17.392Z,64.00
2024-04-22T19:22:17.062Z,64.00
2024-04-22T19:24:17.036Z,64.00
2024-04-22T19:26:17.100Z,64.00
2024-04-22T19:28:17.031Z,64.00
2024-04-22T19:30:22.854Z,64.00
2024-04-22T19:32:17.187Z,64.00
2024-04-22T19:34:20.093Z,64.00
2024-04-22T19:36:26.080Z,64.00
2024-04-22T19:38:17.065Z,64.00
2024-04-22T19:40:17.904Z,64.00
2024-04-22T19:42:17.331Z,64.00
2024-04-22T19:44:17.102Z,64.00
2024-04-22T19:46:17.108Z,64.00
2024-04-22T19:48:17.165Z,64.00
2024-04-22T19:50:17.221Z,64.00
2024-04-22T19:52:17.065Z,64.00
2024-04-22T19:54:17.103Z,64.00
2024-04-22T19:56:17.243Z,64.00
2024-04-22T19:58:17.074Z,64.00
2024-04-22T20:00:17.118Z,64.00
2024-04-22T20:02:17.104Z,64.00
2024-04-22T20:04:17.150Z,64.00
2024-04-22T20:06:17.066Z,64.00
2024-04-22T20:08:17.161Z,64.00
2024-04-22T20:10:22.901Z,64.00
2024-04-22T20:12:17.998Z,64.00
2024-04-22T20:14:17.053Z,64.00
2024-04-22T20:16:24.110Z,64.00
2024-04-22T20:18:17.312Z,70.00
2024-04-22T20:20:17.452Z,70.00
2024-04-22T20:22:17.051Z,70.00
2024-04-22T20:24:17.216Z,70.00
2024-04-22T20:26:17.085Z,70.00
2024-04-22T20:28:17.083Z,70.00
2024-04-22T20:30:17.392Z,70.00
2024-04-22T20:32:17.341Z,71.00
2024-04-22T20:34:17.272Z,71.00
2024-04-22T20:36:17.061Z,71.00
2024-04-22T20:38:17.347Z,71.00
2024-04-22T20:40:25.737Z,71.00
2024-04-22T20:44:17.518Z,72.00
2024-04-22T20:48:17.318Z,72.00
2024-04-22T20:52:17.102Z,72.00
2024-04-22T20:54:17.057Z,72.00
2024-04-22T20:58:18.410Z,72.00
2024-04-22T21:02:41.696Z,71.00
2024-04-22T21:04:37.332Z,71.00
2024-04-22T21:06:37.094Z,71.00
2024-04-22T21:08:35.921Z,71.00
2024-04-22T21:10:38.668Z,71.00
2024-04-22T21:12:36.030Z,71.00
2024-04-22T21:14:36.019Z,71.00
2024-04-22T21:16:42.076Z,71.00
2024-04-22T21:18:36.042Z,71.00
2024-04-22T21:20:35.960Z,71.00
2024-04-22T21:22:36.018Z,71.00
2024-04-22T21:24:36.027Z,71.00
2024-04-22T21:26:35.984Z,71.00
2024-04-22T21:28:36.094Z,71.00
2024-04-22T21:30:35.952Z,71.00
2024-04-22T21:32:36.025Z,71.00
2024-04-22T21:34:36.284Z,71.00
2024-04-22T21:36:35.964Z,71.00
2024-04-22T21:38:36.088Z,71.00
2024-04-22T21:40:36.074Z,71.00
2024-04-22T21:42:35.979Z,71.00
2024-04-22T21:44:35.938Z,71.00
2024-04-22T21:46:35.967Z,71.00
2024-04-22T21:48:35.939Z,71.00
2024-04-22T21:50:36.418Z,71.00
2024-04-22T21:52:36.051Z,71.00
2024-04-22T21:54:36.156Z,71.00
2024-04-22T21:56:35.945Z,71.00
2024-04-22T21:58:35.986Z,71.00
2024-04-22T22:00:36.081Z,72.00
2024-04-22T22:02:36.067Z,72.00
2024-04-22T22:04:36.053Z,72.00
2024-04-22T22:06:36.026Z,72.00
2024-04-22T22:08:35.963Z,72.00
2024-04-22T22:10:36.082Z,72.00
2024-04-22T22:12:35.993Z,72.00
2024-04-22T22:14:36.037Z,72.00
2024-04-22T22:16:36.028Z,72.00
2024-04-22T22:18:39.298Z,72.00
2024-04-22T22:20:44.860Z,72.00
2024-04-22T22:22:35.990Z,72.00
2024-04-22T22:24:36.050Z,72.00
2024-04-22T22:26:36.539Z,72.00
2024-04-22T22:29:36.019Z,72.00
2024-04-22T22:31:36.092Z,72.00
2024-04-22T22:33:36.027Z,73.00
2024-04-22T22:35:36.038Z,73.00
2024-04-22T22:37:36.385Z,73.00
2024-04-22T22:39:35.937Z,73.00
2024-04-22T22:40:48.834Z,73.00
2024-04-22T22:43:36.145Z,73.00
2024-04-22T22:45:41.931Z,73.00
2024-04-22T22:47:36.249Z,73.00
2024-04-22T22:49:39.251Z,73.00
2024-04-22T22:51:36.010Z,73.00
2024-04-22T22:53:36.069Z,73.00
2024-04-22T22:55:36.018Z,73.00
2024-04-22T22:57:36.292Z,73.00
2024-04-22T22:59:36.088Z,74.00
2024-04-22T23:01:36.056Z,74.00
2024-04-22T23:03:36.083Z,74.00
2024-04-22T23:05:35.996Z,74.00
2024-04-22T23:07:36.043Z,74.00
2024-04-22T23:09:36.072Z,74.00
2024-04-22T23:11:36.156Z,74.00
2024-04-22T23:13:36.552Z,74.00
2024-04-22T23:15:35.996Z,74.00
2024-04-22T23:17:36.065Z,74.00
2024-04-22T23:19:36.000Z,74.00
2024-04-22T23:21:36.363Z,75.00
2024-04-22T23:23:36.020Z,75.00
2024-04-22T23:25:36.080Z,75.00
2024-04-22T23:27:36.031Z,75.00
2024-04-22T23:29:36.082Z,75.00
2024-04-22T23:31:36.154Z,75.00
2024-04-22T23:33:36.129Z,75.00
2024-04-22T23:35:36.055Z,75.00
2024-04-22T23:37:37.108Z,75.00
2024-04-22T23:39:36.104Z,75.00
2024-04-22T23:41:36.951Z,75.00
2024-04-22T23:43:36.103Z,75.00
2024-04-22T23:45:36.098Z,75.00
2024-04-22T23:47:36.349Z,76.00
2024-04-22T23:49:36.051Z,76.00
2024-04-22T23:51:36.168Z,76.00
2024-04-22T23:53:36.987Z,76.00
2024-04-22T23:55:36.213Z,76.00
2024-04-22T23:57:40.920Z,76.00
2024-04-22T23:59:36.842Z,76.00
